Grand Forks International Airport
KGFK : now visible

Airfield :











YOU CAN JOIN US ON...

 
LOGIN :

Register | Disclaimer

   EN    FR    IT 

 









Legend :    VFR   Marginal VFR   IFR   Intensive IFR   Very Intensive IFR
Visi :
Ceiling :
>= 8 km
>= 3000ft
5 to 8 km
1000 to 3000 ft
1500m to 5 km
500 to 1000 ft
800 to 1500m
200 to 500 ft
< 800m
< 200 ft
Symbols :   Thunderstorms  Fog  Heavy snow  Heavy precipitations  Wind > 20 kt






- Airport Elevation : 845 ft
- IATA code : GFK


KGFK - Grand Forks International

CURRENT METAR :
  • 060553Z AUTO 24005KT 10SM CLR 22/18 A2987 RMK AO2 RAB23E33 SLP112 P0000 60000 T02170183 10294 20217 403220211 50004

EXPIRED METARs :
  • 060453Z AUTO 24005KT 10SM CLR 23/19 A2988 RMK AO2 SLP115 T02280189
  • 060433Z 25005KT 10SM SCT110 23/20 A2988 RMK AO2 LAST T02280200
  • 060353Z 25006KT 10SM SCT110 BKN200 23/21 A2987 RMK AO2 SLP110 T02330206

TAF KGFK
Valid from the 06 at 06:00 until the 07 at 06:00 UTC


060520Z 0606/0706 VRB06KT P6SM BKN200
FM061500 32006KT P6SM SCT200
KZMP FIR / North America



MET'MAP, your aeronautical weather chart ! - Copyright ORBIFLY December 2007 - Disclaimer

ORBIFLY MET'MAP TEAM :

Programming & Development : Alexandra Zaïnal
Concept & original design : Baudouin d'Aumeries
Assistance for programming : Marc-Olivier Méhu
Technical & hardware support : Manuel Goepfert

Contact : metmap@orbifly.com




SOURCES & CREDITS :

   NOAA       Earth
Advisory